Terminal Aerodrome Forecast
Issued by NWS Mt. Holly, NJ

Home | Current Version | Previous Version | Text Only | Print | Product List | Glossary On
Versions: 1 2 3 4 5 6 7 8 9 10 11 12 13 14 15 16
000
FTUS41 KPHI 200500
TAFABE
TAF
KABE 200534Z 2006/2106 VRB03KT P6SM SCT070 BKN120
     FM201200 16004KT P6SM BKN045 BKN250
     FM201600 19007KT P6SM SCT050
     FM202300 VRB03KT P6SM BKN040 BKN100 PROB30 2023/2103 -SHRA=

USA.gov is the U.S. government's official web portal to all federal, state and local government web resources and services.